sensor_id;sensor_type;location;lat;lon;timestamp;P1;durP1;ratioP1;P2;durP2;ratioP2
8574;SDS011;4325;42.520;27.448;2022-10-17T00:00:28;7.20;;;4.47;;
8574;SDS011;4325;42.520;27.448;2022-10-17T00:02:55;8.00;;;4.50;;
8574;SDS011;4325;42.520;27.448;2022-10-17T00:05:23;8.33;;;4.63;;
8574;SDS011;4325;42.520;27.448;2022-10-17T00:07:50;15.27;;;4.50;;
8574;SDS011;4325;42.520;27.448;2022-10-17T00:10:19;8.37;;;4.43;;
8574;SDS011;4325;42.520;27.448;2022-10-17T00:12:46;9.50;;;4.47;;
8574;SDS011;4325;42.520;27.448;2022-10-17T00:15:14;7.37;;;4.20;;
8574;SDS011;4325;42.520;27.448;2022-10-17T00:17:43;6.93;;;4.33;;
8574;SDS011;4325;42.520;27.448;2022-10-17T00:20:10;8.70;;;4.13;;
8574;SDS011;4325;42.520;27.448;2022-10-17T00:22:37;8.47;;;4.43;;
8574;SDS011;4325;42.520;27.448;2022-10-17T00:25:04;9.90;;;4.33;;
8574;SDS011;4325;42.520;27.448;2022-10-17T00:27:34;9.47;;;4.63;;
8574;SDS011;4325;42.520;27.448;2022-10-17T00:30:02;9.43;;;4.70;;
8574;SDS011;4325;42.520;27.448;2022-10-17T00:32:30;9.33;;;4.53;;
8574;SDS011;4325;42.520;27.448;2022-10-17T00:34:57;6.40;;;4.40;;
8574;SDS011;4325;42.520;27.448;2022-10-17T00:37:24;9.03;;;4.57;;
8574;SDS011;4325;42.520;27.448;2022-10-17T00:39:51;12.80;;;4.97;;
8574;SDS011;4325;42.520;27.448;2022-10-17T00:42:19;10.20;;;5.10;;
8574;SDS011;4325;42.520;27.448;2022-10-17T00:45:00;6.83;;;4.73;;
8574;SDS011;4325;42.520;27.448;2022-10-17T00:47:47;6.97;;;5.30;;
8574;SDS011;4325;42.520;27.448;2022-10-17T00:50:19;8.40;;;5.47;;
8574;SDS011;4325;42.520;27.448;2022-10-17T00:52:46;10.53;;;5.17;;
8574;SDS011;4325;42.520;27.448;2022-10-17T00:55:15;8.33;;;5.27;;
8574;SDS011;4325;42.520;27.448;2022-10-17T00:57:45;8.33;;;5.33;;
8574;SDS011;4325;42.520;27.448;2022-10-17T01:00:14;8.40;;;5.63;;
8574;SDS011;4325;42.520;27.448;2022-10-17T01:02:42;12.63;;;5.90;;
8574;SDS011;4325;42.520;27.448;2022-10-17T01:05:09;8.27;;;5.00;;
8574;SDS011;4325;42.520;27.448;2022-10-17T01:07:37;13.90;;;5.67;;
8574;SDS011;4325;42.520;27.448;2022-10-17T01:10:06;9.03;;;5.27;;
8574;SDS011;4325;42.520;27.448;2022-10-17T01:15:34;12.27;;;5.70;;
8574;SDS011;4325;42.520;27.448;2022-10-17T01:18:12;7.30;;;5.63;;
8574;SDS011;4325;42.520;27.448;2022-10-17T01:23:41;15.70;;;5.47;;
8574;SDS011;4325;42.520;27.448;2022-10-17T01:26:42;8.20;;;5.03;;
8574;SDS011;4325;42.520;27.448;2022-10-17T01:32:14;9.40;;;5.17;;
8574;SDS011;4325;42.520;27.448;2022-10-17T01:34:45;8.87;;;5.50;;
8574;SDS011;4325;42.520;27.448;2022-10-17T01:37:21;12.13;;;5.97;;
8574;SDS011;4325;42.520;27.448;2022-10-17T01:39:58;10.00;;;5.50;;
8574;SDS011;4325;42.520;27.448;2022-10-17T01:42:30;10.33;;;5.77;;
8574;SDS011;4325;42.520;27.448;2022-10-17T01:45:03;7.70;;;5.57;;
8574;SDS011;4325;42.520;27.448;2022-10-17T01:47:39;11.47;;;5.30;;
8574;SDS011;4325;42.520;27.448;2022-10-17T01:50:09;7.57;;;5.33;;
8574;SDS011;4325;42.520;27.448;2022-10-17T01:52:41;10.73;;;5.23;;
8574;SDS011;4325;42.520;27.448;2022-10-17T01:55:13;12.47;;;5.67;;
8574;SDS011;4325;42.520;27.448;2022-10-17T01:57:45;10.00;;;6.40;;
8574;SDS011;4325;42.520;27.448;2022-10-17T02:00:16;8.60;;;5.50;;
8574;SDS011;4325;42.520;27.448;2022-10-17T02:02:47;8.23;;;5.90;;
8574;SDS011;4325;42.520;27.448;2022-10-17T02:05:18;10.07;;;6.33;;
8574;SDS011;4325;42.520;27.448;2022-10-17T02:07:49;15.13;;;6.60;;
8574;SDS011;4325;42.520;27.448;2022-10-17T02:10:18;11.27;;;6.50;;
8574;SDS011;4325;42.520;27.448;2022-10-17T02:12:52;8.37;;;5.80;;
8574;SDS011;4325;42.520;27.448;2022-10-17T02:15:36;10.67;;;5.97;;
8574;SDS011;4325;42.520;27.448;2022-10-17T02:18:17;8.77;;;5.60;;
8574;SDS011;4325;42.520;27.448;2022-10-17T02:20:56;9.93;;;6.20;;
8574;SDS011;4325;42.520;27.448;2022-10-17T02:23:31;7.80;;;5.73;;
8574;SDS011;4325;42.520;27.448;2022-10-17T02:26:05;6.33;;;5.73;;
8574;SDS011;4325;42.520;27.448;2022-10-17T02:28:38;10.30;;;5.93;;
8574;SDS011;4325;42.520;27.448;2022-10-17T02:31:09;8.43;;;5.67;;
8574;SDS011;4325;42.520;27.448;2022-10-17T02:33:42;14.13;;;6.13;;
8574;SDS011;4325;42.520;27.448;2022-10-17T02:36:14;14.87;;;5.67;;
8574;SDS011;4325;42.520;27.448;2022-10-17T02:38:45;9.40;;;5.33;;
8574;SDS011;4325;42.520;27.448;2022-10-17T02:41:13;12.40;;;6.50;;
8574;SDS011;4325;42.520;27.448;2022-10-17T02:43:43;12.03;;;5.73;;
8574;SDS011;4325;42.520;27.448;2022-10-17T02:46:14;9.37;;;5.93;;
8574;SDS011;4325;42.520;27.448;2022-10-17T02:48:47;9.13;;;6.10;;
8574;SDS011;4325;42.520;27.448;2022-10-17T02:51:19;11.40;;;5.60;;
8574;SDS011;4325;42.520;27.448;2022-10-17T02:53:54;8.83;;;5.93;;
8574;SDS011;4325;42.520;27.448;2022-10-17T02:56:32;9.10;;;6.50;;
8574;SDS011;4325;42.520;27.448;2022-10-17T02:59:03;8.07;;;5.83;;
8574;SDS011;4325;42.520;27.448;2022-10-17T03:01:32;13.23;;;6.20;;
8574;SDS011;4325;42.520;27.448;2022-10-17T03:04:06;11.17;;;6.70;;
8574;SDS011;4325;42.520;27.448;2022-10-17T03:06:35;10.57;;;6.70;;
8574;SDS011;4325;42.520;27.448;2022-10-17T03:09:02;9.57;;;6.23;;
8574;SDS011;4325;42.520;27.448;2022-10-17T03:11:29;10.63;;;6.47;;
8574;SDS011;4325;42.520;27.448;2022-10-17T03:13:56;12.47;;;5.70;;
8574;SDS011;4325;42.520;27.448;2022-10-17T03:16:23;10.80;;;7.03;;
8574;SDS011;4325;42.520;27.448;2022-10-17T03:18:50;10.30;;;5.97;;
8574;SDS011;4325;42.520;27.448;2022-10-17T03:21:18;11.00;;;7.17;;
8574;SDS011;4325;42.520;27.448;2022-10-17T03:23:45;10.53;;;6.37;;
8574;SDS011;4325;42.520;27.448;2022-10-17T03:26:12;9.37;;;6.20;;
8574;SDS011;4325;42.520;27.448;2022-10-17T03:28:39;10.07;;;6.63;;
8574;SDS011;4325;42.520;27.448;2022-10-17T03:31:06;12.03;;;7.23;;
8574;SDS011;4325;42.520;27.448;2022-10-17T03:33:34;8.93;;;6.40;;
8574;SDS011;4325;42.520;27.448;2022-10-17T03:36:05;8.50;;;6.60;;
8574;SDS011;4325;42.520;27.448;2022-10-17T03:38:34;12.40;;;6.40;;
8574;SDS011;4325;42.520;27.448;2022-10-17T03:41:01;11.83;;;7.07;;
8574;SDS011;4325;42.520;27.448;2022-10-17T03:43:28;12.07;;;7.80;;
8574;SDS011;4325;42.520;27.448;2022-10-17T03:45:55;11.10;;;6.87;;
8574;SDS011;4325;42.520;27.448;2022-10-17T03:48:23;10.00;;;7.00;;
8574;SDS011;4325;42.520;27.448;2022-10-17T03:50:50;14.93;;;7.17;;
8574;SDS011;4325;42.520;27.448;2022-10-17T03:53:17;9.83;;;6.73;;
8574;SDS011;4325;42.520;27.448;2022-10-17T03:55:46;9.57;;;6.63;;
8574;SDS011;4325;42.520;27.448;2022-10-17T03:58:13;10.80;;;7.77;;
8574;SDS011;4325;42.520;27.448;2022-10-17T04:00:39;11.47;;;6.37;;
8574;SDS011;4325;42.520;27.448;2022-10-17T04:03:06;15.17;;;7.53;;
8574;SDS011;4325;42.520;27.448;2022-10-17T04:05:33;11.20;;;7.47;;
8574;SDS011;4325;42.520;27.448;2022-10-17T04:08:00;15.00;;;7.40;;
8574;SDS011;4325;42.520;27.448;2022-10-17T04:10:27;10.43;;;6.90;;
8574;SDS011;4325;42.520;27.448;2022-10-17T04:12:55;17.30;;;8.77;;
8574;SDS011;4325;42.520;27.448;2022-10-17T04:15:22;17.57;;;7.03;;
8574;SDS011;4325;42.520;27.448;2022-10-17T04:17:49;15.77;;;7.00;;
8574;SDS011;4325;42.520;27.448;2022-10-17T04:20:16;10.90;;;6.33;;
8574;SDS011;4325;42.520;27.448;2022-10-17T04:22:42;14.77;;;7.90;;
8574;SDS011;4325;42.520;27.448;2022-10-17T04:25:09;13.43;;;7.90;;
8574;SDS011;4325;42.520;27.448;2022-10-17T04:27:36;15.37;;;8.30;;
8574;SDS011;4325;42.520;27.448;2022-10-17T04:30:05;13.97;;;7.93;;
8574;SDS011;4325;42.520;27.448;2022-10-17T04:32:35;17.63;;;7.90;;
8574;SDS011;4325;42.520;27.448;2022-10-17T04:35:02;17.73;;;8.07;;
8574;SDS011;4325;42.520;27.448;2022-10-17T04:37:29;15.77;;;7.63;;
8574;SDS011;4325;42.520;27.448;2022-10-17T04:39:56;17.00;;;7.57;;
8574;SDS011;4325;42.520;27.448;2022-10-17T04:42:23;11.50;;;6.40;;
8574;SDS011;4325;42.520;27.448;2022-10-17T04:44:50;10.93;;;6.20;;
8574;SDS011;4325;42.520;27.448;2022-10-17T04:47:18;9.33;;;6.30;;
8574;SDS011;4325;42.520;27.448;2022-10-17T04:49:45;15.13;;;6.37;;
8574;SDS011;4325;42.520;27.448;2022-10-17T04:52:12;14.90;;;5.80;;
8574;SDS011;4325;42.520;27.448;2022-10-17T04:54:39;8.63;;;5.97;;
8574;SDS011;4325;42.520;27.448;2022-10-17T04:57:06;11.80;;;5.77;;
8574;SDS011;4325;42.520;27.448;2022-10-17T04:59:32;9.40;;;6.30;;
8574;SDS011;4325;42.520;27.448;2022-10-17T05:01:59;14.30;;;7.63;;
8574;SDS011;4325;42.520;27.448;2022-10-17T05:04:28;12.30;;;5.50;;
8574;SDS011;4325;42.520;27.448;2022-10-17T05:06:54;18.20;;;5.90;;
8574;SDS011;4325;42.520;27.448;2022-10-17T05:09:21;12.63;;;6.60;;
8574;SDS011;4325;42.520;27.448;2022-10-17T05:11:48;11.80;;;6.10;;
8574;SDS011;4325;42.520;27.448;2022-10-17T05:14:15;9.83;;;5.63;;
8574;SDS011;4325;42.520;27.448;2022-10-17T05:16:42;14.03;;;4.97;;
8574;SDS011;4325;42.520;27.448;2022-10-17T05:19:09;8.40;;;5.57;;
8574;SDS011;4325;42.520;27.448;2022-10-17T05:21:38;12.57;;;6.53;;
8574;SDS011;4325;42.520;27.448;2022-10-17T05:24:05;19.10;;;8.60;;
8574;SDS011;4325;42.520;27.448;2022-10-17T05:26:32;6.20;;;5.17;;
8574;SDS011;4325;42.520;27.448;2022-10-17T05:28:59;14.17;;;6.07;;
8574;SDS011;4325;42.520;27.448;2022-10-17T05:31:27;7.37;;;5.10;;
8574;SDS011;4325;42.520;27.448;2022-10-17T05:33:54;11.90;;;5.57;;
8574;SDS011;4325;42.520;27.448;2022-10-17T05:36:21;17.20;;;6.53;;
8574;SDS011;4325;42.520;27.448;2022-10-17T05:38:50;11.47;;;6.57;;
8574;SDS011;4325;42.520;27.448;2022-10-17T05:41:17;18.03;;;5.90;;
8574;SDS011;4325;42.520;27.448;2022-10-17T05:43:45;17.33;;;7.77;;
8574;SDS011;4325;42.520;27.448;2022-10-17T05:46:12;12.00;;;5.30;;
8574;SDS011;4325;42.520;27.448;2022-10-17T05:48:39;12.27;;;6.07;;
8574;SDS011;4325;42.520;27.448;2022-10-17T05:51:06;10.73;;;5.23;;
8574;SDS011;4325;42.520;27.448;2022-10-17T05:53:36;12.97;;;5.97;;
8574;SDS011;4325;42.520;27.448;2022-10-17T05:56:06;11.03;;;5.57;;
8574;SDS011;4325;42.520;27.448;2022-10-17T05:58:34;10.57;;;5.43;;
8574;SDS011;4325;42.520;27.448;2022-10-17T06:01:01;11.03;;;4.93;;
8574;SDS011;4325;42.520;27.448;2022-10-17T06:03:30;14.20;;;5.17;;
8574;SDS011;4325;42.520;27.448;2022-10-17T06:06:01;12.83;;;5.13;;
8574;SDS011;4325;42.520;27.448;2022-10-17T06:08:29;8.57;;;4.53;;
8574;SDS011;4325;42.520;27.448;2022-10-17T06:10:55;16.27;;;4.60;;
8574;SDS011;4325;42.520;27.448;2022-10-17T06:13:24;7.77;;;4.43;;
8574;SDS011;4325;42.520;27.448;2022-10-17T06:15:51;4.57;;;3.63;;
8574;SDS011;4325;42.520;27.448;2022-10-17T06:18:18;10.07;;;5.03;;
8574;SDS011;4325;42.520;27.448;2022-10-17T06:20:45;10.20;;;4.40;;
8574;SDS011;4325;42.520;27.448;2022-10-17T06:23:12;18.07;;;5.87;;
8574;SDS011;4325;42.520;27.448;2022-10-17T06:25:39;11.67;;;4.60;;
8574;SDS011;4325;42.520;27.448;2022-10-17T06:28:07;8.57;;;4.87;;
8574;SDS011;4325;42.520;27.448;2022-10-17T06:30:37;11.50;;;4.73;;
8574;SDS011;4325;42.520;27.448;2022-10-17T06:33:04;9.60;;;5.63;;
8574;SDS011;4325;42.520;27.448;2022-10-17T06:35:31;9.63;;;4.53;;
8574;SDS011;4325;42.520;27.448;2022-10-17T06:37:58;6.00;;;4.10;;
8574;SDS011;4325;42.520;27.448;2022-10-17T06:40:25;13.80;;;4.07;;
8574;SDS011;4325;42.520;27.448;2022-10-17T06:42:52;11.50;;;4.40;;
8574;SDS011;4325;42.520;27.448;2022-10-17T06:45:19;8.50;;;4.03;;
8574;SDS011;4325;42.520;27.448;2022-10-17T06:47:47;10.10;;;4.20;;
8574;SDS011;4325;42.520;27.448;2022-10-17T06:50:14;9.77;;;4.60;;
8574;SDS011;4325;42.520;27.448;2022-10-17T06:52:41;5.90;;;3.87;;
8574;SDS011;4325;42.520;27.448;2022-10-17T06:55:08;13.50;;;4.03;;
8574;SDS011;4325;42.520;27.448;2022-10-17T06:57:35;7.03;;;3.90;;
8574;SDS011;4325;42.520;27.448;2022-10-17T07:00:02;10.17;;;4.27;;
8574;SDS011;4325;42.520;27.448;2022-10-17T07:02:31;5.50;;;3.67;;
8574;SDS011;4325;42.520;27.448;2022-10-17T07:04:59;10.97;;;4.47;;
8574;SDS011;4325;42.520;27.448;2022-10-17T07:07:26;11.87;;;4.40;;
8574;SDS011;4325;42.520;27.448;2022-10-17T07:09:56;11.60;;;4.00;;
8574;SDS011;4325;42.520;27.448;2022-10-17T07:12:23;11.40;;;4.23;;
8574;SDS011;4325;42.520;27.448;2022-10-17T07:14:50;12.63;;;5.10;;
8574;SDS011;4325;42.520;27.448;2022-10-17T07:17:17;12.57;;;4.50;;
8574;SDS011;4325;42.520;27.448;2022-10-17T07:19:44;6.77;;;4.57;;
8574;SDS011;4325;42.520;27.448;2022-10-17T07:22:12;11.67;;;5.33;;
8574;SDS011;4325;42.520;27.448;2022-10-17T07:24:39;7.17;;;4.27;;
8574;SDS011;4325;42.520;27.448;2022-10-17T07:27:06;8.03;;;4.00;;
8574;SDS011;4325;42.520;27.448;2022-10-17T07:29:33;10.60;;;5.13;;
8574;SDS011;4325;42.520;27.448;2022-10-17T07:32:00;8.90;;;3.93;;
8574;SDS011;4325;42.520;27.448;2022-10-17T07:34:28;12.70;;;4.67;;
8574;SDS011;4325;42.520;27.448;2022-10-17T07:36:55;8.30;;;4.17;;
8574;SDS011;4325;42.520;27.448;2022-10-17T07:39:24;12.50;;;5.03;;
8574;SDS011;4325;42.520;27.448;2022-10-17T07:41:51;6.67;;;4.37;;
8574;SDS011;4325;42.520;27.448;2022-10-17T07:44:18;12.97;;;5.17;;
8574;SDS011;4325;42.520;27.448;2022-10-17T07:46:45;13.30;;;3.90;;
8574;SDS011;4325;42.520;27.448;2022-10-17T07:49:12;14.13;;;4.73;;
8574;SDS011;4325;42.520;27.448;2022-10-17T07:51:39;15.37;;;5.10;;
8574;SDS011;4325;42.520;27.448;2022-10-17T07:54:06;9.27;;;4.97;;
8574;SDS011;4325;42.520;27.448;2022-10-17T07:56:34;9.43;;;4.63;;
8574;SDS011;4325;42.520;27.448;2022-10-17T07:59:01;6.80;;;4.40;;
8574;SDS011;4325;42.520;27.448;2022-10-17T08:01:28;11.13;;;4.67;;
8574;SDS011;4325;42.520;27.448;2022-10-17T08:03:55;13.17;;;3.73;;
8574;SDS011;4325;42.520;27.448;2022-10-17T08:06:22;6.53;;;3.90;;
8574;SDS011;4325;42.520;27.448;2022-10-17T08:08:49;10.43;;;4.90;;
8574;SDS011;4325;42.520;27.448;2022-10-17T08:11:16;10.57;;;4.63;;
8574;SDS011;4325;42.520;27.448;2022-10-17T08:13:44;7.73;;;4.70;;
8574;SDS011;4325;42.520;27.448;2022-10-17T08:16:12;5.67;;;3.80;;
8574;SDS011;4325;42.520;27.448;2022-10-17T08:18:39;9.13;;;4.47;;
8574;SDS011;4325;42.520;27.448;2022-10-17T08:21:08;6.03;;;4.63;;
8574;SDS011;4325;42.520;27.448;2022-10-17T08:23:37;6.17;;;4.43;;
8574;SDS011;4325;42.520;27.448;2022-10-17T08:26:05;10.10;;;4.40;;
8574;SDS011;4325;42.520;27.448;2022-10-17T08:28:35;8.00;;;4.43;;
8574;SDS011;4325;42.520;27.448;2022-10-17T08:31:05;14.33;;;3.90;;
8574;SDS011;4325;42.520;27.448;2022-10-17T08:33:33;7.00;;;4.33;;
8574;SDS011;4325;42.520;27.448;2022-10-17T08:36:00;12.33;;;3.43;;
8574;SDS011;4325;42.520;27.448;2022-10-17T08:38:28;9.83;;;3.70;;
8574;SDS011;4325;42.520;27.448;2022-10-17T08:40:56;10.70;;;3.45;;
8574;SDS011;4325;42.520;27.448;2022-10-17T08:43:39;9.60;;;3.50;;
8574;SDS011;4325;42.520;27.448;2022-10-17T08:46:16;10.70;;;3.65;;
8574;SDS011;4325;42.520;27.448;2022-10-17T08:48:44;9.68;;;3.90;;
8574;SDS011;4325;42.520;27.448;2022-10-17T08:51:14;8.50;;;3.88;;
8574;SDS011;4325;42.520;27.448;2022-10-17T08:53:46;7.05;;;4.10;;
8574;SDS011;4325;42.520;27.448;2022-10-17T08:56:18;11.00;;;4.05;;
8574;SDS011;4325;42.520;27.448;2022-10-17T08:58:46;7.70;;;3.60;;
8574;SDS011;4325;42.520;27.448;2022-10-17T09:01:21;7.80;;;3.20;;
8574;SDS011;4325;42.520;27.448;2022-10-17T09:04:02;13.97;;;3.50;;
8574;SDS011;4325;42.520;27.448;2022-10-17T09:06:42;10.30;;;4.00;;
8574;SDS011;4325;42.520;27.448;2022-10-17T09:09:19;13.37;;;3.90;;
8574;SDS011;4325;42.520;27.448;2022-10-17T09:11:58;7.17;;;3.27;;
8574;SDS011;4325;42.520;27.448;2022-10-17T09:14:35;6.87;;;3.50;;
8574;SDS011;4325;42.520;27.448;2022-10-17T09:17:26;7.07;;;3.43;;
8574;SDS011;4325;42.520;27.448;2022-10-17T09:20:03;9.03;;;3.50;;
8574;SDS011;4325;42.520;27.448;2022-10-17T09:22:36;8.83;;;3.60;;
8574;SDS011;4325;42.520;27.448;2022-10-17T09:25:09;12.03;;;3.50;;
8574;SDS011;4325;42.520;27.448;2022-10-17T09:27:39;5.57;;;3.23;;
8574;SDS011;4325;42.520;27.448;2022-10-17T09:30:21;8.00;;;3.67;;
8574;SDS011;4325;42.520;27.448;2022-10-17T09:32:55;9.90;;;3.43;;
8574;SDS011;4325;42.520;27.448;2022-10-17T09:35:21;9.37;;;3.87;;
8574;SDS011;4325;42.520;27.448;2022-10-17T09:37:50;9.37;;;3.70;;
8574;SDS011;4325;42.520;27.448;2022-10-17T09:40:18;8.73;;;3.33;;
8574;SDS011;4325;42.520;27.448;2022-10-17T09:42:49;12.17;;;3.83;;
8574;SDS011;4325;42.520;27.448;2022-10-17T09:45:17;7.87;;;3.60;;
8574;SDS011;4325;42.520;27.448;2022-10-17T09:47:50;11.00;;;3.90;;
8574;SDS011;4325;42.520;27.448;2022-10-17T09:50:27;8.35;;;3.08;;
8574;SDS011;4325;42.520;27.448;2022-10-17T09:52:56;4.28;;;2.70;;
8574;SDS011;4325;42.520;27.448;2022-10-17T09:55:29;5.47;;;3.17;;
8574;SDS011;4325;42.520;27.448;2022-10-17T09:58:04;6.65;;;2.60;;
8574;SDS011;4325;42.520;27.448;2022-10-17T10:00:33;6.28;;;2.92;;
8574;SDS011;4325;42.520;27.448;2022-10-17T10:03:12;8.50;;;3.00;;
8574;SDS011;4325;42.520;27.448;2022-10-17T10:05:41;12.18;;;2.92;;
8574;SDS011;4325;42.520;27.448;2022-10-17T10:08:24;5.35;;;2.97;;
8574;SDS011;4325;42.520;27.448;2022-10-17T10:10:56;4.82;;;3.00;;
8574;SDS011;4325;42.520;27.448;2022-10-17T10:13:27;5.57;;;2.60;;
8574;SDS011;4325;42.520;27.448;2022-10-17T10:15:55;7.05;;;3.25;;
8574;SDS011;4325;42.520;27.448;2022-10-17T10:18:41;8.00;;;2.97;;
8574;SDS011;4325;42.520;27.448;2022-10-17T10:21:09;12.75;;;3.40;;
8574;SDS011;4325;42.520;27.448;2022-10-17T10:23:38;6.60;;;2.83;;
8574;SDS011;4325;42.520;27.448;2022-10-17T10:28:56;5.78;;;3.03;;
8574;SDS011;4325;42.520;27.448;2022-10-17T10:31:26;9.15;;;2.92;;
8574;SDS011;4325;42.520;27.448;2022-10-17T10:33:57;6.93;;;2.90;;
8574;SDS011;4325;42.520;27.448;2022-10-17T10:36:40;9.32;;;2.70;;
8574;SDS011;4325;42.520;27.448;2022-10-17T10:39:14;6.07;;;3.08;;
8574;SDS011;4325;42.520;27.448;2022-10-17T10:41:51;5.38;;;2.67;;
8574;SDS011;4325;42.520;27.448;2022-10-17T10:44:18;6.35;;;2.47;;
8574;SDS011;4325;42.520;27.448;2022-10-17T10:46:51;5.80;;;2.67;;
8574;SDS011;4325;42.520;27.448;2022-10-17T10:49:33;4.82;;;2.65;;
8574;SDS011;4325;42.520;27.448;2022-10-17T10:51:59;8.18;;;3.83;;
8574;SDS011;4325;42.520;27.448;2022-10-17T10:54:29;5.90;;;2.35;;
8574;SDS011;4325;42.520;27.448;2022-10-17T10:57:01;4.63;;;2.22;;
8574;SDS011;4325;42.520;27.448;2022-10-17T10:59:34;10.18;;;3.10;;
8574;SDS011;4325;42.520;27.448;2022-10-17T11:02:09;7.60;;;2.90;;
8574;SDS011;4325;42.520;27.448;2022-10-17T11:04:43;9.15;;;2.67;;
8574;SDS011;4325;42.520;27.448;2022-10-17T11:07:14;7.85;;;2.88;;
8574;SDS011;4325;42.520;27.448;2022-10-17T11:09:48;11.73;;;2.97;;
8574;SDS011;4325;42.520;27.448;2022-10-17T11:12:19;8.50;;;2.72;;
8574;SDS011;4325;42.520;27.448;2022-10-17T11:14:51;4.47;;;2.50;;
8574;SDS011;4325;42.520;27.448;2022-10-17T11:17:30;4.85;;;2.80;;
8574;SDS011;4325;42.520;27.448;2022-10-17T11:20:05;10.80;;;3.40;;
8574;SDS011;4325;42.520;27.448;2022-10-17T11:22:41;8.73;;;2.50;;
8574;SDS011;4325;42.520;27.448;2022-10-17T11:25:26;6.93;;;2.67;;
8574;SDS011;4325;42.520;27.448;2022-10-17T11:27:57;7.93;;;2.53;;
8574;SDS011;4325;42.520;27.448;2022-10-17T11:30:25;6.80;;;2.43;;
8574;SDS011;4325;42.520;27.448;2022-10-17T11:33:04;5.47;;;2.43;;
8574;SDS011;4325;42.520;27.448;2022-10-17T11:35:35;4.77;;;2.17;;
8574;SDS011;4325;42.520;27.448;2022-10-17T11:38:06;6.83;;;2.57;;
8574;SDS011;4325;42.520;27.448;2022-10-17T11:40:43;3.97;;;2.37;;
8574;SDS011;4325;42.520;27.448;2022-10-17T11:43:14;6.63;;;3.03;;
8574;SDS011;4325;42.520;27.448;2022-10-17T11:45:44;7.67;;;2.60;;
8574;SDS011;4325;42.520;27.448;2022-10-17T11:48:18;11.32;;;3.50;;
8574;SDS011;4325;42.520;27.448;2022-10-17T11:50:53;11.35;;;3.10;;
8574;SDS011;4325;42.520;27.448;2022-10-17T11:53:26;7.82;;;3.03;;
8574;SDS011;4325;42.520;27.448;2022-10-17T11:55:56;5.65;;;3.22;;
8574;SDS011;4325;42.520;27.448;2022-10-17T11:58:31;8.68;;;3.67;;
8574;SDS011;4325;42.520;27.448;2022-10-17T12:01:06;7.70;;;2.65;;
8574;SDS011;4325;42.520;27.448;2022-10-17T12:03:47;4.50;;;2.80;;
8574;SDS011;4325;42.520;27.448;2022-10-17T12:06:28;6.40;;;2.97;;
8574;SDS011;4325;42.520;27.448;2022-10-17T12:09:06;9.18;;;3.40;;
8574;SDS011;4325;42.520;27.448;2022-10-17T12:11:43;5.47;;;3.30;;
8574;SDS011;4325;42.520;27.448;2022-10-17T12:14:34;11.70;;;3.35;;
8574;SDS011;4325;42.520;27.448;2022-10-17T12:22:54;11.13;;;3.13;;
8574;SDS011;4325;42.520;27.448;2022-10-17T12:25:24;6.57;;;2.80;;
8574;SDS011;4325;42.520;27.448;2022-10-17T12:28:02;6.57;;;3.20;;
8574;SDS011;4325;42.520;27.448;2022-10-17T12:30:47;14.63;;;3.38;;
8574;SDS011;4325;42.520;27.448;2022-10-17T12:33:20;9.98;;;2.90;;
8574;SDS011;4325;42.520;27.448;2022-10-17T12:35:51;2.83;;;2.58;;
8574;SDS011;4325;42.520;27.448;2022-10-17T12:48:12;6.35;;;3.03;;
8574;SDS011;4325;42.520;27.448;2022-10-17T12:53:32;8.55;;;3.28;;
8574;SDS011;4325;42.520;27.448;2022-10-17T12:56:07;5.25;;;3.13;;
8574;SDS011;4325;42.520;27.448;2022-10-17T12:58:34;3.78;;;2.92;;
8574;SDS011;4325;42.520;27.448;2022-10-17T13:01:01;7.35;;;3.65;;
8574;SDS011;4325;42.520;27.448;2022-10-17T13:03:33;5.60;;;2.80;;
8574;SDS011;4325;42.520;27.448;2022-10-17T13:06:12;8.60;;;3.40;;
8574;SDS011;4325;42.520;27.448;2022-10-17T13:08:44;7.32;;;2.92;;
8574;SDS011;4325;42.520;27.448;2022-10-17T13:11:17;9.30;;;3.05;;
8574;SDS011;4325;42.520;27.448;2022-10-17T13:13:49;7.00;;;2.92;;
8574;SDS011;4325;42.520;27.448;2022-10-17T13:16:27;10.48;;;3.55;;
8574;SDS011;4325;42.520;27.448;2022-10-17T13:18:56;10.88;;;4.13;;
8574;SDS011;4325;42.520;27.448;2022-10-17T13:21:23;9.80;;;3.80;;
8574;SDS011;4325;42.520;27.448;2022-10-17T13:23:50;6.07;;;3.38;;
8574;SDS011;4325;42.520;27.448;2022-10-17T13:26:21;7.22;;;3.40;;
8574;SDS011;4325;42.520;27.448;2022-10-17T13:29:02;9.48;;;3.40;;
8574;SDS011;4325;42.520;27.448;2022-10-17T13:31:31;11.13;;;3.53;;
8574;SDS011;4325;42.520;27.448;2022-10-17T13:34:00;4.85;;;3.08;;
8574;SDS011;4325;42.520;27.448;2022-10-17T13:36:29;8.77;;;3.55;;
8574;SDS011;4325;42.520;27.448;2022-10-17T13:38:57;4.93;;;3.10;;
8574;SDS011;4325;42.520;27.448;2022-10-17T13:41:27;8.30;;;3.53;;
8574;SDS011;4325;42.520;27.448;2022-10-17T13:43:55;5.57;;;2.83;;
8574;SDS011;4325;42.520;27.448;2022-10-17T13:46:26;5.23;;;3.23;;
8574;SDS011;4325;42.520;27.448;2022-10-17T13:48:56;4.93;;;3.33;;
8574;SDS011;4325;42.520;27.448;2022-10-17T13:51:24;6.00;;;3.47;;
8574;SDS011;4325;42.520;27.448;2022-10-17T13:53:52;11.97;;;3.80;;
8574;SDS011;4325;42.520;27.448;2022-10-17T13:56:20;4.87;;;3.03;;
8574;SDS011;4325;42.520;27.448;2022-10-17T13:58:51;6.80;;;3.00;;
8574;SDS011;4325;42.520;27.448;2022-10-17T14:01:21;7.60;;;3.63;;
8574;SDS011;4325;42.520;27.448;2022-10-17T14:03:50;10.67;;;3.30;;
8574;SDS011;4325;42.520;27.448;2022-10-17T14:06:17;6.37;;;2.90;;
8574;SDS011;4325;42.520;27.448;2022-10-17T14:08:50;10.20;;;3.40;;
8574;SDS011;4325;42.520;27.448;2022-10-17T14:11:22;6.20;;;2.93;;
8574;SDS011;4325;42.520;27.448;2022-10-17T14:13:53;9.40;;;3.23;;
8574;SDS011;4325;42.520;27.448;2022-10-17T14:16:21;11.47;;;3.70;;
8574;SDS011;4325;42.520;27.448;2022-10-17T14:18:50;9.00;;;3.20;;
8574;SDS011;4325;42.520;27.448;2022-10-17T14:21:19;5.47;;;3.17;;
8574;SDS011;4325;42.520;27.448;2022-10-17T14:23:48;6.50;;;3.20;;
8574;SDS011;4325;42.520;27.448;2022-10-17T14:26:17;8.77;;;4.40;;
8574;SDS011;4325;42.520;27.448;2022-10-17T14:28:47;8.43;;;3.27;;
8574;SDS011;4325;42.520;27.448;2022-10-17T14:31:24;6.03;;;3.00;;
8574;SDS011;4325;42.520;27.448;2022-10-17T14:33:54;10.90;;;3.60;;
8574;SDS011;4325;42.520;27.448;2022-10-17T14:36:29;7.67;;;2.90;;
8574;SDS011;4325;42.520;27.448;2022-10-17T14:39:03;9.73;;;3.77;;
8574;SDS011;4325;42.520;27.448;2022-10-17T14:41:33;9.17;;;3.50;;
8574;SDS011;4325;42.520;27.448;2022-10-17T14:44:03;8.07;;;3.67;;
8574;SDS011;4325;42.520;27.448;2022-10-17T14:46:34;8.33;;;3.90;;
8574;SDS011;4325;42.520;27.448;2022-10-17T14:49:14;11.10;;;4.03;;
8574;SDS011;4325;42.520;27.448;2022-10-17T14:54:38;6.70;;;3.30;;
8574;SDS011;4325;42.520;27.448;2022-10-17T14:57:12;9.23;;;3.73;;
8574;SDS011;4325;42.520;27.448;2022-10-17T14:59:42;10.70;;;3.93;;
8574;SDS011;4325;42.520;27.448;2022-10-17T15:02:10;10.03;;;3.37;;
8574;SDS011;4325;42.520;27.448;2022-10-17T15:04:38;8.77;;;3.53;;
8574;SDS011;4325;42.520;27.448;2022-10-17T15:07:05;12.27;;;3.97;;
8574;SDS011;4325;42.520;27.448;2022-10-17T15:09:32;12.27;;;3.93;;
8574;SDS011;4325;42.520;27.448;2022-10-17T15:11:59;10.37;;;3.40;;
8574;SDS011;4325;42.520;27.448;2022-10-17T15:14:27;10.60;;;4.23;;
8574;SDS011;4325;42.520;27.448;2022-10-17T15:16:55;10.30;;;4.13;;
8574;SDS011;4325;42.520;27.448;2022-10-17T15:19:24;9.17;;;3.53;;
8574;SDS011;4325;42.520;27.448;2022-10-17T15:21:51;6.63;;;3.70;;
8574;SDS011;4325;42.520;27.448;2022-10-17T15:24:18;14.90;;;5.73;;
8574;SDS011;4325;42.520;27.448;2022-10-17T15:26:44;9.23;;;4.33;;
8574;SDS011;4325;42.520;27.448;2022-10-17T15:29:12;9.80;;;4.00;;
8574;SDS011;4325;42.520;27.448;2022-10-17T15:31:41;15.43;;;4.50;;
8574;SDS011;4325;42.520;27.448;2022-10-17T15:34:08;9.50;;;3.83;;
8574;SDS011;4325;42.520;27.448;2022-10-17T15:36:37;10.67;;;4.83;;
8574;SDS011;4325;42.520;27.448;2022-10-17T15:39:06;7.03;;;3.90;;
8574;SDS011;4325;42.520;27.448;2022-10-17T15:41:34;5.73;;;3.93;;
8574;SDS011;4325;42.520;27.448;2022-10-17T15:44:01;9.97;;;3.77;;
8574;SDS011;4325;42.520;27.448;2022-10-17T15:46:28;7.13;;;4.30;;